Terminal Aerodrome Forecast
Issued by NWS

Home | Current Version | Previous Version | Text Only | Print | Product List | Glossary On
Versions: 1 2 3 4 5 6 7 8 9 10 11 12 13 14 15 16 17 18 19 20 21
000
FTUS45 KRIW 080528
TAFRKS
TAF
KRKS 080528Z 0806/0906 10007KT P6SM VCSH SCT030 BKN060
     FM080900 09007KT P6SM VCFG SCT003 BKN025
     FM081800 VRB12G20KT P6SM VCTS SCT050CB BKN080
     FM090300 10008KT P6SM VCSH BKN100=

USA.gov is the U.S. government's official web portal to all federal, state and local government web resources and services.